createdAt,value
2023-05-10T00:00:03.184Z,742.50
2023-05-10T00:01:02.841Z,683.10
2023-05-10T00:02:02.964Z,741.20
2023-05-10T00:03:02.985Z,603.40
2023-05-10T00:04:02.980Z,676.50
2023-05-10T00:05:02.885Z,631.30
2023-05-10T00:06:02.859Z,815.60
2023-05-10T00:07:02.896Z,740.90
2023-05-10T00:08:02.800Z,603.70
2023-05-10T00:09:02.850Z,837.20
2023-05-10T00:10:02.672Z,691.50
2023-05-10T00:11:02.705Z,788.30
2023-05-10T00:12:02.757Z,901.90
2023-05-10T00:13:02.766Z,654.40
2023-05-10T00:14:02.677Z,793.50
2023-05-10T00:15:02.752Z,770.10
2023-05-10T00:16:02.828Z,817.50
2023-05-10T00:17:02.784Z,753.90
2023-05-10T00:18:02.756Z,719.90
2023-05-10T00:19:02.667Z,723.30
2023-05-10T00:20:02.725Z,794.60
2023-05-10T00:21:02.744Z,676.70
2023-05-10T00:22:02.759Z,762.50
2023-05-10T00:23:02.712Z,747.00
2023-05-10T00:24:02.685Z,764.10
2023-05-10T00:25:02.700Z,744.60
2023-05-10T00:26:02.721Z,717.60
2023-05-10T00:27:02.670Z,730.00
2023-05-10T00:28:02.924Z,687.50
2023-05-10T00:29:02.881Z,670.50
2023-05-10T00:30:02.795Z,601.70
2023-05-10T00:31:02.750Z,662.60
2023-05-10T00:32:02.734Z,599.20
2023-05-10T00:33:02.675Z,598.20
2023-05-10T00:34:02.680Z,729.10
2023-05-10T00:35:02.577Z,713.00
2023-05-10T00:36:02.624Z,644.50
2023-05-10T00:37:02.582Z,581.60
2023-05-10T00:38:02.544Z,723.60
2023-05-10T00:39:02.594Z,630.80
2023-05-10T00:40:02.846Z,647.00
2023-05-10T00:41:02.680Z,694.00
2023-05-10T00:42:02.643Z,668.70
2023-05-10T00:43:02.595Z,636.40
2023-05-10T00:44:02.583Z,613.80
2023-05-10T00:45:02.565Z,624.20
2023-05-10T00:46:02.569Z,554.40
2023-05-10T00:47:02.513Z,601.40
2023-05-10T00:48:02.560Z,681.80
2023-05-10T00:49:02.565Z,646.20
2023-05-10T00:50:02.508Z,616.00
2023-05-10T00:51:02.832Z,591.00
2023-05-10T00:52:02.524Z,693.90
2023-05-10T00:53:02.510Z,626.20
2023-05-10T00:54:02.469Z,707.10
2023-05-10T00:55:02.502Z,579.10
2023-05-10T00:56:02.451Z,626.30
2023-05-10T00:57:02.485Z,659.70
2023-05-10T00:58:02.449Z,710.30
2023-05-10T00:59:02.477Z,622.80
2023-05-10T01:00:02.473Z,632.10
2023-05-10T01:01:02.578Z,591.30
2023-05-10T01:02:02.338Z,667.90
2023-05-10T01:03:02.427Z,765.00
2023-05-10T01:04:03.361Z,639.30
2023-05-10T01:05:02.466Z,693.20
2023-05-10T01:06:02.331Z,651.60
2023-05-10T01:07:02.291Z,581.90
2023-05-10T01:08:02.288Z,593.60
2023-05-10T01:09:02.258Z,705.80
2023-05-10T01:10:02.405Z,634.00
2023-05-10T01:11:02.759Z,618.10
2023-05-10T01:12:02.434Z,598.60
2023-05-10T01:13:02.233Z,591.20
2023-05-10T01:14:02.438Z,663.10
2023-05-10T01:15:03.336Z,631.70
2023-05-10T01:16:02.430Z,627.70
2023-05-10T01:17:02.385Z,707.30
2023-05-10T01:18:02.619Z,698.00
2023-05-10T01:19:02.300Z,780.00
2023-05-10T01:20:02.294Z,523.70
2023-05-10T01:21:02.229Z,759.90
2023-05-10T01:22:02.398Z,556.20
2023-05-10T01:23:02.231Z,730.10
2023-05-10T01:24:02.335Z,805.60
2023-05-10T01:25:02.252Z,757.10
2023-05-10T01:26:02.280Z,785.90
2023-05-10T01:27:02.217Z,786.70
2023-05-10T01:28:02.245Z,729.50
2023-05-10T01:29:02.513Z,667.70
2023-05-10T01:30:21.673Z,536.10
2023-05-10T01:31:04.173Z,686.40
2023-05-10T01:32:02.183Z,718.00
2023-05-10T01:33:02.678Z,507.80
2023-05-10T01:34:02.240Z,682.10
2023-05-10T01:35:02.217Z,566.50
2023-05-10T01:36:13.283Z,771.90
2023-05-10T01:37:02.248Z,739.70
2023-05-10T01:38:02.191Z,684.20
2023-05-10T01:39:02.169Z,805.20
2023-05-10T01:40:02.146Z,570.00
2023-05-10T01:41:02.061Z,497.60
2023-05-10T01:42:02.048Z,534.70
2023-05-10T01:43:02.015Z,468.00
2023-05-10T01:44:02.045Z,466.30
2023-05-10T01:45:02.091Z,443.70
2023-05-10T01:46:02.041Z,531.60
2023-05-10T01:47:02.107Z,554.10
2023-05-10T01:48:02.050Z,738.60
2023-05-10T01:49:02.088Z,548.20
2023-05-10T01:50:02.095Z,573.90
2023-05-10T01:51:02.064Z,603.40
2023-05-10T01:52:02.050Z,466.00
2023-05-10T01:53:02.112Z,526.50
2023-05-10T01:54:02.112Z,467.90
2023-05-10T01:55:02.349Z,518.30
2023-05-10T01:56:02.086Z,511.70
2023-05-10T01:57:02.049Z,450.10
2023-05-10T01:58:02.061Z,458.60
2023-05-10T01:59:02.028Z,474.50
2023-05-10T02:00:02.140Z,450.70
2023-05-10T02:01:02.101Z,538.60
2023-05-10T02:02:02.047Z,545.50
2023-05-10T02:03:02.165Z,498.10
2023-05-10T02:04:20.811Z,533.70
2023-05-10T02:05:02.071Z,794.50
2023-05-10T02:06:02.015Z,501.30
2023-05-10T02:07:02.027Z,483.80
2023-05-10T02:08:01.965Z,713.90
2023-05-10T02:09:01.937Z,584.80
2023-05-10T02:10:01.971Z,752.30
2023-05-10T02:11:02.017Z,919.50
2023-05-10T02:12:02.078Z,711.90
2023-05-10T02:13:01.899Z,441.80
2023-05-10T02:14:02.001Z,470.10
2023-05-10T02:15:01.834Z,507.80
2023-05-10T02:16:01.841Z,478.20
2023-05-10T02:17:02.085Z,460.80
2023-05-10T02:18:02.022Z,613.30
2023-05-10T02:19:01.835Z,466.10
2023-05-10T02:20:01.792Z,518.90
2023-05-10T02:21:01.934Z,522.10
2023-05-10T02:22:01.932Z,432.90
2023-05-10T02:23:01.810Z,488.80
2023-05-10T02:24:01.736Z,563.40
2023-05-10T02:25:01.754Z,550.90
2023-05-10T02:26:01.810Z,454.70
2023-05-10T02:27:01.781Z,550.20
2023-05-10T02:28:01.828Z,779.10
2023-05-10T02:29:01.775Z,669.20
2023-05-10T02:30:01.854Z,617.60
2023-05-10T02:31:01.711Z,556.00
2023-05-10T02:32:02.013Z,402.30
2023-05-10T02:33:01.828Z,411.40
2023-05-10T02:34:01.780Z,416.40
2023-05-10T02:35:01.760Z,370.50
2023-05-10T02:36:01.692Z,435.30
2023-05-10T02:37:01.766Z,402.90
2023-05-10T02:39:02.872Z,424.80
2023-05-10T02:39:02.915Z,429.70
2023-05-10T02:40:01.717Z,392.30
2023-05-10T02:41:01.693Z,397.30
2023-05-10T02:42:01.730Z,441.20
2023-05-10T02:43:01.709Z,406.90
2023-05-10T02:44:01.659Z,475.90
2023-05-10T02:45:01.765Z,431.20
2023-05-10T02:46:01.629Z,444.50
2023-05-10T02:47:01.621Z,570.10
2023-05-10T02:48:01.660Z,547.70
2023-05-10T02:49:01.688Z,496.70
2023-05-10T02:50:01.661Z,510.10
2023-05-10T02:51:01.594Z,503.00
2023-05-10T02:52:01.631Z,449.40
2023-05-10T02:53:01.639Z,369.10
2023-05-10T02:54:01.686Z,377.20
2023-05-10T02:55:01.681Z,342.00
2023-05-10T02:56:01.579Z,349.70
2023-05-10T02:57:01.686Z,348.30
2023-05-10T02:58:01.643Z,353.90
2023-05-10T02:59:01.523Z,299.90
2023-05-10T03:00:01.616Z,346.50
2023-05-10T03:01:01.624Z,331.40
2023-05-10T03:02:01.747Z,298.60
2023-05-10T03:03:02.517Z,307.10
2023-05-10T03:04:01.533Z,329.80
2023-05-10T03:05:01.537Z,579.50
2023-05-10T03:06:01.566Z,507.00
2023-05-10T03:07:01.585Z,512.10
2023-05-10T03:08:01.500Z,372.80
2023-05-10T03:09:01.477Z,328.70
2023-05-10T03:10:01.502Z,316.20
2023-05-10T03:11:01.487Z,421.60
2023-05-10T03:12:01.523Z,324.00
2023-05-10T03:13:01.497Z,421.00
2023-05-10T03:14:01.453Z,381.90
2023-05-10T03:15:01.501Z,292.40
2023-05-10T03:16:01.569Z,320.70
2023-05-10T03:17:01.434Z,339.80
2023-05-10T03:18:01.495Z,385.20
2023-05-10T03:19:01.372Z,390.00
2023-05-10T03:20:01.421Z,389.50
2023-05-10T03:21:01.439Z,415.60
2023-05-10T03:22:01.381Z,401.30
2023-05-10T03:23:01.360Z,396.10
2023-05-10T03:24:20.957Z,429.60
2023-05-10T03:25:01.355Z,400.80
2023-05-10T03:26:01.316Z,350.10
2023-05-10T03:27:01.312Z,365.80
2023-05-10T03:28:01.359Z,363.30
2023-05-10T03:29:01.343Z,313.10
2023-05-10T03:30:01.296Z,303.20
2023-05-10T03:31:01.295Z,338.30
2023-05-10T03:32:01.323Z,382.10
2023-05-10T03:33:01.391Z,355.80
2023-05-10T03:34:01.280Z,447.70
2023-05-10T03:35:01.279Z,650.40
2023-05-10T03:36:01.244Z,471.90
2023-05-10T03:37:01.243Z,650.10
2023-05-10T03:38:01.785Z,691.60
2023-05-10T03:39:01.216Z,737.80
2023-05-10T03:40:01.266Z,526.70
2023-05-10T03:41:01.214Z,427.50
2023-05-10T03:42:01.178Z,500.90
2023-05-10T03:43:01.316Z,579.60
2023-05-10T03:44:01.271Z,387.30
2023-05-10T03:45:01.192Z,474.60
2023-05-10T03:46:01.241Z,497.40
2023-05-10T03:47:01.239Z,596.20
2023-05-10T03:48:01.305Z,596.00
2023-05-10T03:49:01.172Z,473.80
2023-05-10T03:50:01.103Z,521.70
2023-05-10T03:51:01.210Z,445.00
2023-05-10T03:52:01.178Z,441.20
2023-05-10T03:53:01.140Z,434.20
2023-05-10T03:54:01.174Z,479.20
2023-05-10T03:55:01.194Z,490.40
2023-05-10T03:56:01.081Z,441.50
2023-05-10T03:57:01.079Z,435.70
2023-05-10T03:58:01.116Z,390.70
2023-05-10T03:59:01.095Z,377.40
2023-05-10T04:00:01.142Z,237.50
2023-05-10T04:01:01.065Z,243.60
2023-05-10T04:02:01.068Z,242.30
2023-05-10T04:03:26.351Z,224.70
2023-05-10T04:04:02.139Z,247.00
2023-05-10T04:05:01.143Z,282.70
2023-05-10T04:06:01.088Z,351.00
2023-05-10T04:07:01.079Z,373.80
2023-05-10T04:08:01.089Z,386.00
2023-05-10T04:09:01.209Z,363.50
2023-05-10T04:10:01.011Z,270.30
2023-05-10T04:11:01.032Z,265.30
2023-05-10T04:12:00.979Z,232.40
2023-05-10T04:13:01.038Z,257.70
2023-05-10T04:14:01.003Z,264.10
2023-05-10T04:15:00.961Z,257.60
2023-05-10T04:16:01.002Z,234.20
2023-05-10T04:17:01.023Z,259.90
2023-05-10T04:18:00.994Z,251.70
2023-05-10T04:19:00.968Z,281.60
2023-05-10T04:20:00.993Z,278.40
2023-05-10T04:21:00.922Z,286.60
2023-05-10T04:22:00.976Z,276.10
2023-05-10T04:23:00.880Z,327.20
2023-05-10T04:24:00.893Z,298.40
2023-05-10T04:25:00.899Z,363.70
2023-05-10T04:26:00.888Z,325.20
2023-05-10T04:27:00.871Z,285.70
2023-05-10T04:28:00.940Z,349.70
2023-05-10T04:29:00.833Z,401.20
2023-05-10T04:30:00.841Z,432.40
2023-05-10T04:31:00.926Z,484.90
2023-05-10T04:32:00.791Z,462.10
2023-05-10T04:33:00.880Z,321.50
2023-05-10T04:34:00.810Z,319.80
2023-05-10T04:35:00.813Z,295.50
2023-05-10T04:36:00.800Z,495.30
2023-05-10T04:37:00.833Z,318.20
2023-05-10T04:38:00.771Z,423.40
2023-05-10T04:39:01.282Z,315.60
2023-05-10T04:40:00.825Z,324.00
2023-05-10T04:41:00.807Z,298.60
2023-05-10T04:42:00.770Z,340.40
2023-05-10T04:43:00.796Z,361.80
2023-05-10T04:44:01.787Z,311.90
2023-05-10T04:45:00.761Z,416.00
2023-05-10T04:46:00.796Z,333.50
2023-05-10T04:47:00.731Z,342.10
2023-05-10T04:48:00.778Z,326.30
2023-05-10T04:49:00.792Z,314.60
2023-05-10T04:50:00.735Z,324.00
2023-05-10T04:51:00.735Z,289.50
2023-05-10T04:52:00.804Z,304.10
2023-05-10T04:53:00.714Z,302.20
2023-05-10T04:54:06.025Z,285.90
2023-05-10T04:55:02.827Z,328.00
2023-05-10T04:56:00.684Z,300.80
2023-05-10T04:57:07.990Z,386.00
2023-05-10T04:58:00.631Z,305.80
2023-05-10T04:59:00.615Z,309.60
2023-05-10T05:00:00.674Z,306.80
2023-05-10T05:01:00.933Z,262.40
2023-05-10T05:02:00.836Z,232.50
2023-05-10T05:03:00.702Z,245.80
2023-05-10T05:04:00.795Z,304.00
2023-05-10T05:05:00.772Z,361.90
2023-05-10T05:06:00.698Z,291.60
2023-05-10T05:07:00.578Z,316.10
2023-05-10T05:08:00.603Z,269.30
2023-05-10T05:09:00.572Z,263.70
2023-05-10T05:10:00.593Z,260.30
2023-05-10T05:11:00.590Z,278.30
2023-05-10T05:12:00.571Z,278.40
2023-05-10T05:13:00.625Z,270.30
2023-05-10T05:14:00.585Z,335.60
2023-05-10T05:15:00.528Z,421.00
2023-05-10T05:16:00.608Z,323.50
2023-05-10T05:17:00.602Z,357.20
2023-05-10T05:18:00.609Z,394.40
2023-05-10T05:19:00.524Z,406.00
2023-05-10T05:20:00.572Z,311.80
2023-05-10T05:21:00.504Z,270.90
2023-05-10T05:22:00.553Z,317.50
2023-05-10T05:23:00.512Z,376.90
2023-05-10T05:24:00.512Z,457.90
2023-05-10T05:25:00.486Z,329.40
2023-05-10T05:26:00.522Z,370.60
2023-05-10T05:27:00.484Z,362.90
2023-05-10T05:28:00.527Z,351.30
2023-05-10T05:29:00.409Z,299.40
2023-05-10T05:30:00.431Z,326.70
2023-05-10T05:31:00.478Z,367.20
2023-05-10T05:32:00.549Z,356.10
2023-05-10T05:33:00.500Z,338.10
2023-05-10T05:34:00.444Z,382.10
2023-05-10T05:35:00.385Z,363.50
2023-05-10T05:36:00.360Z,340.70
2023-05-10T05:37:00.391Z,375.00
2023-05-10T05:38:00.359Z,413.10
2023-05-10T05:39:00.650Z,417.90
2023-05-10T05:40:00.534Z,369.80
2023-05-10T05:41:00.400Z,371.70
2023-05-10T05:42:00.394Z,345.80
2023-05-10T05:43:00.304Z,334.00
2023-05-10T05:44:00.327Z,351.90
2023-05-10T05:45:00.329Z,362.90
2023-05-10T05:46:00.330Z,349.80
2023-05-10T05:47:00.315Z,341.00
2023-05-10T05:48:00.728Z,369.60
2023-05-10T05:49:00.255Z,352.20
2023-05-10T05:50:00.358Z,361.00
2023-05-10T05:51:07.276Z,344.70
2023-05-10T05:52:00.348Z,328.50
2023-05-10T05:53:00.249Z,309.20
2023-05-10T05:54:00.291Z,346.30
2023-05-10T05:55:00.302Z,337.70
2023-05-10T05:56:00.227Z,378.50
2023-05-10T05:57:01.201Z,384.30
2023-05-10T05:58:00.201Z,370.70
2023-05-10T05:59:00.169Z,364.00
2023-05-10T06:00:00.223Z,367.20
2023-05-10T06:01:00.311Z,378.30
2023-05-10T06:02:00.225Z,356.60
2023-05-10T06:03:00.393Z,321.20
2023-05-10T06:04:00.356Z,326.60
2023-05-10T06:05:00.176Z,338.60
2023-05-10T06:06:00.190Z,399.00
2023-05-10T06:07:00.166Z,389.60
2023-05-10T06:08:00.182Z,407.90
2023-05-10T06:09:00.373Z,365.00
2023-05-10T06:10:00.188Z,354.00
2023-05-10T06:11:00.159Z,342.90
2023-05-10T06:12:00.179Z,333.40
2023-05-10T06:13:00.185Z,346.00
2023-05-10T06:14:00.108Z,345.80
2023-05-10T06:15:00.113Z,363.70
2023-05-10T06:16:01.059Z,369.80
2023-05-10T06:17:00.259Z,340.60
2023-05-10T06:18:00.257Z,401.20
2023-05-10T06:19:00.074Z,403.00
2023-05-10T06:20:00.078Z,436.30
2023-05-10T06:21:00.072Z,423.10
2023-05-10T06:22:00.027Z,330.30
2023-05-10T06:23:00.069Z,332.00
2023-05-10T06:23:59.987Z,366.10
2023-05-10T06:25:00.047Z,402.00
2023-05-10T06:26:00.053Z,410.40
2023-05-10T06:27:00.005Z,375.50
2023-05-10T06:28:00.039Z,314.60
2023-05-10T06:28:59.994Z,326.60
2023-05-10T06:30:11.741Z,317.40
2023-05-10T06:31:02.079Z,360.90
2023-05-10T06:32:00.003Z,308.20
2023-05-10T06:32:59.968Z,320.90
2023-05-10T09:08:19.142Z,11.30
2023-05-10T09:09:18.886Z,13.00
2023-05-10T09:10:18.888Z,9.80
2023-05-10T09:11:20.136Z,10.10
2023-05-10T09:12:19.990Z,11.80
2023-05-10T09:13:20.141Z,11.30
2023-05-10T09:14:20.065Z,15.40
2023-05-10T09:15:20.007Z,25.50
2023-05-10T09:16:21.590Z,98.80
2023-05-10T09:17:20.914Z,172.20
2023-05-10T09:18:20.016Z,141.30
2023-05-10T09:19:19.980Z,218.80
2023-05-10T09:20:19.941Z,156.60
2023-05-10T09:21:19.942Z,132.60
2023-05-10T09:22:19.943Z,103.50
2023-05-10T09:23:19.949Z,97.20
2023-05-10T09:24:19.988Z,174.70
2023-05-10T09:25:20.154Z,130.40
2023-05-10T09:26:19.946Z,136.70
2023-05-10T09:27:19.865Z,116.60
2023-05-10T09:28:19.942Z,122.50
2023-05-10T09:29:20.081Z,195.40
2023-05-10T09:30:20.129Z,210.20
2023-05-10T09:31:20.044Z,141.50
2023-05-10T09:32:20.029Z,136.60
2023-05-10T09:33:19.916Z,162.20
2023-05-10T09:34:19.930Z,246.10
2023-05-10T09:35:20.017Z,203.70
2023-05-10T09:36:19.870Z,132.10
2023-05-10T09:37:20.132Z,148.60
2023-05-10T09:38:19.977Z,109.90
2023-05-10T09:39:20.015Z,168.50
2023-05-10T09:40:19.898Z,219.20
2023-05-10T09:41:19.893Z,132.90
2023-05-10T09:42:19.870Z,154.50
2023-05-10T09:43:19.807Z,250.90
2023-05-10T09:44:19.817Z,311.20
2023-05-10T09:45:19.933Z,299.10
2023-05-10T09:46:20.130Z,300.50
2023-05-10T09:47:25.474Z,257.10
2023-05-10T09:48:20.015Z,256.30
2023-05-10T09:49:26.049Z,237.80
2023-05-10T09:50:19.940Z,299.00
2023-05-10T09:51:19.676Z,296.10
2023-05-10T09:52:20.754Z,302.80
2023-05-10T09:53:19.701Z,251.80
2023-05-10T09:54:19.620Z,296.50
2023-05-10T09:55:19.696Z,279.00
2023-05-10T09:56:23.758Z,307.40
2023-05-10T09:57:20.681Z,283.10
2023-05-10T09:58:19.707Z,266.50
2023-05-10T09:59:19.605Z,248.10
2023-05-10T10:00:19.612Z,226.80
2023-05-10T10:01:19.780Z,208.80
2023-05-10T10:02:19.960Z,139.30
2023-05-10T10:03:19.692Z,239.50
2023-05-10T10:04:19.734Z,90.40
2023-05-10T10:05:19.644Z,175.70
2023-05-10T10:06:29.495Z,75.90
2023-05-10T10:07:22.007Z,96.40
2023-05-10T10:08:19.937Z,122.40
2023-05-10T10:09:20.244Z,87.50
2023-05-10T10:10:19.682Z,62.50
2023-05-10T10:11:19.812Z,59.90
2023-05-10T10:12:19.643Z,39.30
2023-05-10T10:13:19.821Z,43.40
2023-05-10T10:14:19.479Z,52.60
2023-05-10T10:15:19.644Z,124.50
2023-05-10T10:16:19.575Z,144.20
2023-05-10T10:17:19.480Z,236.20
2023-05-10T10:18:19.532Z,142.90
2023-05-10T10:19:19.451Z,80.20
2023-05-10T10:20:19.690Z,193.00
2023-05-10T10:21:19.513Z,95.00
2023-05-10T10:22:20.513Z,109.40
2023-05-10T10:23:19.547Z,129.20
2023-05-10T10:24:19.689Z,115.70
2023-05-10T10:25:19.806Z,179.80
2023-05-10T10:26:19.578Z,162.80
2023-05-10T10:27:19.528Z,120.00
2023-05-10T10:28:19.576Z,193.80
2023-05-10T10:29:19.642Z,128.70
2023-05-10T10:30:19.618Z,128.80
2023-05-10T10:31:19.918Z,132.20
2023-05-10T10:32:19.462Z,108.50
2023-05-10T10:33:27.691Z,112.00
2023-05-10T10:34:21.690Z,154.70
2023-05-10T10:35:19.459Z,216.00
2023-05-10T10:36:19.648Z,139.40
2023-05-10T10:37:19.388Z,115.40
2023-05-10T10:38:19.424Z,191.60
2023-05-10T10:39:19.572Z,165.30
2023-05-10T10:40:19.420Z,185.50
2023-05-10T10:41:19.487Z,186.80
2023-05-10T10:42:19.762Z,210.50
2023-05-10T10:43:19.405Z,184.90
2023-05-10T10:44:19.513Z,190.70
2023-05-10T10:45:19.978Z,191.50
2023-05-10T10:46:20.185Z,210.30
2023-05-10T10:47:19.333Z,253.00
2023-05-10T10:48:19.280Z,260.00
2023-05-10T10:49:19.408Z,269.20
2023-05-10T10:50:19.851Z,232.80
2023-05-10T10:51:19.262Z,210.00
2023-05-10T10:52:19.295Z,279.30
2023-05-10T10:53:19.370Z,175.00
2023-05-10T10:54:19.597Z,279.70
2023-05-10T10:55:19.619Z,289.70
2023-05-10T10:56:20.099Z,227.00
2023-05-10T10:57:19.314Z,300.40
2023-05-10T10:58:19.558Z,399.60
2023-05-10T10:59:19.307Z,296.90
2023-05-10T11:00:19.254Z,315.50
2023-05-10T11:01:19.648Z,187.30
2023-05-10T11:02:19.718Z,224.30
2023-05-10T11:03:19.285Z,316.20
2023-05-10T11:04:19.428Z,290.60
2023-05-10T11:05:19.432Z,331.40
2023-05-10T11:06:21.022Z,494.10
2023-05-10T11:07:19.541Z,576.70
2023-05-10T11:08:19.703Z,591.20
2023-05-10T11:09:19.907Z,582.20
2023-05-10T11:10:19.368Z,693.70
2023-05-10T11:11:19.972Z,494.70
2023-05-10T11:12:23.887Z,514.20
2023-05-10T11:13:19.809Z,545.10
2023-05-10T11:14:19.578Z,615.80
2023-05-10T11:15:19.276Z,597.50
2023-05-10T11:16:19.764Z,615.80
2023-05-10T11:17:19.866Z,688.20
2023-05-10T11:18:19.567Z,562.70
2023-05-10T11:19:19.705Z,469.60
2023-05-10T11:20:19.629Z,338.80
2023-05-10T11:21:19.817Z,376.30
2023-05-10T11:22:19.433Z,503.60
2023-05-10T11:23:19.137Z,632.00
2023-05-10T11:24:19.555Z,600.90
2023-05-10T11:25:19.290Z,621.10
2023-05-10T11:26:19.117Z,617.90
2023-05-10T11:27:19.215Z,663.80
2023-05-10T11:28:19.143Z,756.60
2023-05-10T11:29:19.193Z,738.40
2023-05-10T11:30:19.358Z,814.50
2023-05-10T11:31:19.326Z,660.60
2023-05-10T11:32:19.430Z,683.30
2023-05-10T11:33:19.220Z,676.40
2023-05-10T11:34:19.245Z,693.50
2023-05-10T11:35:19.312Z,629.10
2023-05-10T11:36:19.096Z,658.40
2023-05-10T11:37:19.190Z,732.60
2023-05-10T11:38:19.039Z,721.10
2023-05-10T11:39:19.162Z,381.40
2023-05-10T11:40:19.123Z,447.10
2023-05-10T11:41:18.893Z,509.60
2023-05-10T11:42:18.957Z,584.40
2023-05-10T11:43:18.869Z,583.70
2023-05-10T11:44:19.024Z,606.70
2023-05-10T11:45:18.889Z,477.90
2023-05-10T11:46:18.934Z,760.00
2023-05-10T11:47:18.961Z,772.50
2023-05-10T11:48:18.955Z,795.60
2023-05-10T11:49:18.939Z,751.80
2023-05-10T11:50:19.422Z,680.80
2023-05-10T11:51:18.988Z,714.70
2023-05-10T11:52:19.132Z,772.70
2023-05-10T11:53:18.905Z,758.70
2023-05-10T11:54:18.919Z,726.50
2023-05-10T11:55:18.938Z,784.20
2023-05-10T11:56:18.852Z,711.60
2023-05-10T11:57:18.864Z,821.30
2023-05-10T11:58:18.840Z,879.60
2023-05-10T11:59:18.955Z,854.60
2023-05-10T12:00:19.176Z,809.90
2023-05-10T12:01:18.991Z,775.80
2023-05-10T12:02:19.088Z,886.50
2023-05-10T12:03:19.299Z,905.50
2023-05-10T12:04:19.201Z,821.70
2023-05-10T12:05:18.883Z,566.90
2023-05-10T12:06:18.886Z,551.80
2023-05-10T12:07:18.842Z,565.00
2023-05-10T12:08:18.769Z,450.80
2023-05-10T12:09:23.031Z,269.80
2023-05-10T12:10:20.117Z,234.70
2023-05-10T12:11:18.976Z,294.50
2023-05-10T12:12:18.822Z,251.70
2023-05-10T12:13:18.683Z,285.20
2023-05-10T12:14:18.730Z,277.40
2023-05-10T12:15:18.702Z,462.70
2023-05-10T12:16:18.747Z,472.80
2023-05-10T12:17:18.730Z,313.70
2023-05-10T12:18:18.809Z,395.30
2023-05-10T12:19:18.713Z,393.70
2023-05-10T12:20:19.310Z,330.60
2023-05-10T12:21:18.675Z,372.60
2023-05-10T12:22:19.032Z,275.50
2023-05-10T12:23:18.726Z,296.20
2023-05-10T12:24:18.980Z,326.10
2023-05-10T12:25:18.833Z,363.70
2023-05-10T12:26:18.708Z,244.20
2023-05-10T12:27:18.794Z,293.90
2023-05-10T12:28:19.304Z,239.30
2023-05-10T12:29:19.027Z,225.90
2023-05-10T12:30:18.943Z,277.80
2023-05-10T12:31:18.994Z,281.50
2023-05-10T12:32:19.085Z,246.90
2023-05-10T12:33:18.772Z,216.00
2023-05-10T12:34:18.647Z,207.30
2023-05-10T12:35:18.657Z,213.20
2023-05-10T12:36:18.797Z,212.50
2023-05-10T12:37:20.337Z,254.90
2023-05-10T12:38:18.952Z,211.80
2023-05-10T12:39:18.672Z,212.80
2023-05-10T12:40:19.351Z,294.90
2023-05-10T12:41:18.647Z,250.00
2023-05-10T12:42:18.609Z,250.80
2023-05-10T12:43:19.032Z,256.10
2023-05-10T12:44:18.644Z,291.60
2023-05-10T12:45:18.648Z,299.90
2023-05-10T12:46:18.602Z,263.60
2023-05-10T12:47:18.817Z,247.70
2023-05-10T12:48:19.085Z,257.50
2023-05-10T12:49:18.506Z,279.70
2023-05-10T12:50:18.856Z,295.50
2023-05-10T12:51:18.554Z,296.00
2023-05-10T12:52:18.587Z,335.40
2023-05-10T12:53:18.683Z,401.40
2023-05-10T12:54:18.718Z,380.50
2023-05-10T12:55:18.826Z,389.60
2023-05-10T12:56:18.584Z,442.90
2023-05-10T12:57:18.581Z,376.20
2023-05-10T12:58:31.908Z,407.30
2023-05-10T12:59:20.715Z,441.80
2023-05-10T13:00:18.811Z,368.50
2023-05-10T13:01:19.188Z,445.20
2023-05-10T13:02:18.330Z,394.70
2023-05-10T13:03:18.416Z,367.80
2023-05-10T13:04:18.389Z,375.80
2023-05-10T13:05:18.302Z,401.20
2023-05-10T13:06:18.401Z,405.40
2023-05-10T13:07:19.063Z,376.70
2023-05-10T13:08:19.186Z,414.90
2023-05-10T13:09:18.786Z,431.50
2023-05-10T13:10:19.028Z,381.90
2023-05-10T13:11:18.541Z,433.20
2023-05-10T13:12:18.258Z,444.60
2023-05-10T13:13:18.323Z,469.30
2023-05-10T13:14:18.383Z,437.50
2023-05-10T13:15:18.985Z,436.10
2023-05-10T13:16:18.492Z,438.90
2023-05-10T13:17:19.015Z,427.00
2023-05-10T13:18:18.436Z,411.80
2023-05-10T13:19:18.500Z,415.20
2023-05-10T13:20:19.115Z,428.00
2023-05-10T13:21:18.175Z,383.00
2023-05-10T13:22:25.544Z,396.30
2023-05-10T13:23:20.295Z,384.50
2023-05-10T13:24:18.185Z,341.30
2023-05-10T13:25:18.472Z,355.80
2023-05-10T13:26:18.313Z,430.60
2023-05-10T13:27:18.312Z,455.50
2023-05-10T13:28:18.281Z,435.70
2023-05-10T13:29:18.259Z,447.90
2023-05-10T13:30:18.403Z,475.30
2023-05-10T13:31:18.770Z,483.80
2023-05-10T13:32:18.756Z,461.60
2023-05-10T13:33:18.712Z,432.00
2023-05-10T13:34:18.312Z,445.00
2023-05-10T13:35:18.266Z,460.80
2023-05-10T13:36:18.342Z,496.30
2023-05-10T13:37:18.169Z,506.20
2023-05-10T13:38:19.440Z,456.10
2023-05-10T13:39:18.295Z,504.10
2023-05-10T13:40:18.397Z,518.30
2023-05-10T13:41:18.132Z,548.80
2023-05-10T13:42:18.468Z,469.60
2023-05-10T13:43:18.656Z,505.00
2023-05-10T13:44:18.732Z,479.20
2023-05-10T13:45:18.424Z,497.50
2023-05-10T13:46:18.460Z,485.40
2023-05-10T13:47:17.988Z,518.80
2023-05-10T13:48:18.222Z,592.10
2023-05-10T13:49:18.023Z,615.70
2023-05-10T13:50:18.599Z,602.40
2023-05-10T13:51:18.300Z,613.90
2023-05-10T13:52:18.695Z,656.10
2023-05-10T13:53:18.617Z,622.20
2023-05-10T13:54:18.097Z,584.60
2023-05-10T13:55:18.522Z,556.00
2023-05-10T13:56:18.127Z,652.10
2023-05-10T13:57:18.604Z,620.90
2023-05-10T13:58:18.269Z,612.50
2023-05-10T13:59:18.314Z,674.90
2023-05-10T14:00:18.234Z,850.50
2023-05-10T14:01:18.770Z,838.30
2023-05-10T14:02:18.041Z,853.80
2023-05-10T14:03:18.092Z,847.30
2023-05-10T14:04:18.005Z,791.40
2023-05-10T14:06:17.969Z,763.20
2023-05-10T14:07:17.943Z,824.20
2023-05-10T14:08:17.951Z,830.40
2023-05-10T14:09:18.064Z,855.80
2023-05-10T14:10:18.010Z,777.10
2023-05-10T14:11:17.856Z,748.20
2023-05-10T14:12:17.898Z,868.40
2023-05-10T14:13:18.030Z,729.70
2023-05-10T14:14:17.964Z,886.10
2023-05-10T14:15:18.366Z,803.80
2023-05-10T14:16:17.950Z,804.40
2023-05-10T14:17:17.948Z,640.90
2023-05-10T14:18:17.924Z,606.80
2023-05-10T14:19:17.981Z,558.10
2023-05-10T14:20:17.953Z,515.50
2023-05-10T14:21:19.160Z,614.30
2023-05-10T14:22:18.258Z,577.30
2023-05-10T14:23:17.933Z,513.20
2023-05-10T14:24:17.986Z,537.90
2023-05-10T14:25:18.092Z,377.70
2023-05-10T14:26:17.856Z,370.60
2023-05-10T14:27:17.876Z,452.40
2023-05-10T14:28:18.154Z,386.50
2023-05-10T14:29:17.873Z,434.30
2023-05-10T14:30:17.808Z,531.50
2023-05-10T14:31:18.179Z,472.10
2023-05-10T14:32:17.936Z,723.20
2023-05-10T14:33:18.501Z,758.40
2023-05-10T14:34:18.327Z,823.00
2023-05-10T14:35:19.722Z,811.30
2023-05-10T14:36:18.912Z,390.00
2023-05-10T14:37:18.068Z,452.80
2023-05-10T14:38:18.524Z,435.60
2023-05-10T14:39:17.916Z,394.80
2023-05-10T14:40:18.143Z,432.90
2023-05-10T14:41:17.981Z,279.70
2023-05-10T14:42:17.895Z,378.60
2023-05-10T14:43:17.913Z,574.00
2023-05-10T14:44:18.608Z,579.10
2023-05-10T14:45:22.874Z,623.80
2023-05-10T14:46:18.115Z,430.60
2023-05-10T14:47:17.941Z,360.00
2023-05-10T14:48:18.257Z,503.70
2023-05-10T14:49:17.911Z,464.30
2023-05-10T14:50:34.703Z,350.80
2023-05-10T14:51:20.199Z,362.10
2023-05-10T14:52:18.045Z,425.00
2023-05-10T14:53:22.429Z,416.80
2023-05-10T14:54:18.773Z,456.90
2023-05-10T14:55:18.650Z,370.40
2023-05-10T14:56:17.852Z,395.00
2023-05-10T14:57:18.293Z,330.00
2023-05-10T14:58:18.186Z,404.30
2023-05-10T14:59:18.351Z,363.60
2023-05-10T15:00:18.308Z,354.00
2023-05-10T15:01:18.534Z,292.20
2023-05-10T15:02:18.363Z,331.80
2023-05-10T15:03:18.241Z,361.00
2023-05-10T15:04:25.443Z,390.50